Terminal Aerodrome Forecast
Issued by NWS Charleston, WV

Current Version | Previous Version | Graphics & Text | Print | Product List | Glossary On
Versions: 1 2 3 4 5 6 7 8 9 10 11 12 13 14 15 16 17 18 19 20 21 22 23 24 25 26 27 28 29 30 31
000
FTUS41 KRLX 210500
TAFCRW
TAF
KCRW 210534Z 2106/2206 00000KT 4SM BR SCT001
     FM210800 00000KT 1/2SM FG OVC001
     FM211200 00000KT 3SM BR SCT002 SCT080
     FM211300 00000KT P6SM FEW003 SCT060
     FM211500 00000KT P6SM SCT250
     FM211800 VRB03KT P6SM BKN040
     FM220100 VRB03KT 6SM BR BKN050=

USA.gov is the U.S. government's official web portal to all federal, state and local government web resources and services.